sensor_id;sensor_type;location;lat;lon;timestamp;P1;durP1;ratioP1;P2;durP2;ratioP2
74630;SDS011;63138;55.082;38.804;2023-07-13T00:01:46;3.95;;;2.63;;
74630;SDS011;63138;55.082;38.804;2023-07-13T00:04:33;4.07;;;2.60;;
74630;SDS011;63138;55.082;38.804;2023-07-13T00:06:59;3.27;;;2.20;;
74630;SDS011;63138;55.082;38.804;2023-07-13T00:09:44;4.30;;;2.28;;
74630;SDS011;63138;55.082;38.804;2023-07-13T00:12:35;3.25;;;2.00;;
74630;SDS011;63138;55.082;38.804;2023-07-13T00:15:04;4.60;;;2.58;;
74630;SDS011;63138;55.082;38.804;2023-07-13T00:17:32;3.53;;;2.30;;
74630;SDS011;63138;55.082;38.804;2023-07-13T00:19:58;5.28;;;2.13;;
74630;SDS011;63138;55.082;38.804;2023-07-13T00:22:24;4.10;;;2.70;;
74630;SDS011;63138;55.082;38.804;2023-07-13T00:24:53;4.27;;;2.37;;
74630;SDS011;63138;55.082;38.804;2023-07-13T00:27:22;4.78;;;2.40;;
74630;SDS011;63138;55.082;38.804;2023-07-13T00:29:52;5.47;;;2.40;;
74630;SDS011;63138;55.082;38.804;2023-07-13T00:32:18;3.28;;;2.35;;
74630;SDS011;63138;55.082;38.804;2023-07-13T00:34:44;3.87;;;2.20;;
74630;SDS011;63138;55.082;38.804;2023-07-13T00:37:09;5.63;;;2.60;;
74630;SDS011;63138;55.082;38.804;2023-07-13T00:39:36;4.07;;;2.40;;
74630;SDS011;63138;55.082;38.804;2023-07-13T00:42:02;3.80;;;2.47;;
74630;SDS011;63138;55.082;38.804;2023-07-13T00:44:28;3.80;;;2.50;;
74630;SDS011;63138;55.082;38.804;2023-07-13T00:46:54;4.13;;;2.30;;
74630;SDS011;63138;55.082;38.804;2023-07-13T00:49:23;3.47;;;2.40;;
74630;SDS011;63138;55.082;38.804;2023-07-13T00:51:58;4.07;;;2.33;;
74630;SDS011;63138;55.082;38.804;2023-07-13T00:54:29;4.32;;;2.35;;
74630;SDS011;63138;55.082;38.804;2023-07-13T00:56:59;3.05;;;1.98;;
74630;SDS011;63138;55.082;38.804;2023-07-13T00:59:28;4.00;;;2.03;;
74630;SDS011;63138;55.082;38.804;2023-07-13T01:01:56;3.65;;;2.30;;
74630;SDS011;63138;55.082;38.804;2023-07-13T01:04:25;4.30;;;2.17;;
74630;SDS011;63138;55.082;38.804;2023-07-13T01:06:52;3.83;;;2.47;;
74630;SDS011;63138;55.082;38.804;2023-07-13T01:09:19;4.10;;;2.40;;
74630;SDS011;63138;55.082;38.804;2023-07-13T01:11:46;4.38;;;2.47;;
74630;SDS011;63138;55.082;38.804;2023-07-13T01:14:13;3.58;;;2.38;;
74630;SDS011;63138;55.082;38.804;2023-07-13T01:16:41;4.13;;;2.47;;
74630;SDS011;63138;55.082;38.804;2023-07-13T01:19:14;4.45;;;2.30;;
74630;SDS011;63138;55.082;38.804;2023-07-13T01:21:55;4.75;;;2.53;;
74630;SDS011;63138;55.082;38.804;2023-07-13T01:24:21;3.90;;;2.40;;
74630;SDS011;63138;55.082;38.804;2023-07-13T01:26:48;5.23;;;2.50;;
74630;SDS011;63138;55.082;38.804;2023-07-13T01:29:15;4.38;;;2.22;;
74630;SDS011;63138;55.082;38.804;2023-07-13T01:31:42;3.53;;;2.38;;
74630;SDS011;63138;55.082;38.804;2023-07-13T01:34:10;5.47;;;2.90;;
74630;SDS011;63138;55.082;38.804;2023-07-13T01:36:36;3.97;;;2.70;;
74630;SDS011;63138;55.082;38.804;2023-07-13T01:39:05;4.18;;;2.30;;
74630;SDS011;63138;55.082;38.804;2023-07-13T01:41:30;4.07;;;2.00;;
74630;SDS011;63138;55.082;38.804;2023-07-13T01:43:56;5.10;;;2.30;;
74630;SDS011;63138;55.082;38.804;2023-07-13T01:46:22;5.07;;;2.13;;
74630;SDS011;63138;55.082;38.804;2023-07-13T01:48:48;3.90;;;2.40;;
74630;SDS011;63138;55.082;38.804;2023-07-13T01:51:15;7.72;;;2.45;;
74630;SDS011;63138;55.082;38.804;2023-07-13T01:53:41;5.05;;;2.30;;
74630;SDS011;63138;55.082;38.804;2023-07-13T01:56:07;4.77;;;2.27;;
74630;SDS011;63138;55.082;38.804;2023-07-13T01:58:34;3.45;;;2.30;;
74630;SDS011;63138;55.082;38.804;2023-07-13T02:01:00;6.68;;;2.33;;
74630;SDS011;63138;55.082;38.804;2023-07-13T02:03:27;3.97;;;2.38;;
74630;SDS011;63138;55.082;38.804;2023-07-13T02:05:52;3.73;;;2.20;;
74630;SDS011;63138;55.082;38.804;2023-07-13T02:08:18;5.25;;;2.25;;
74630;SDS011;63138;55.082;38.804;2023-07-13T02:10:46;4.83;;;2.30;;
74630;SDS011;63138;55.082;38.804;2023-07-13T02:13:11;3.85;;;2.30;;
74630;SDS011;63138;55.082;38.804;2023-07-13T02:15:38;4.10;;;2.22;;
74630;SDS011;63138;55.082;38.804;2023-07-13T02:18:06;5.28;;;2.42;;
74630;SDS011;63138;55.082;38.804;2023-07-13T02:20:52;4.43;;;2.40;;
74630;SDS011;63138;55.082;38.804;2023-07-13T02:23:18;4.53;;;2.30;;
74630;SDS011;63138;55.082;38.804;2023-07-13T02:25:46;5.40;;;2.63;;
74630;SDS011;63138;55.082;38.804;2023-07-13T02:28:11;5.47;;;2.20;;
74630;SDS011;63138;55.082;38.804;2023-07-13T02:30:38;5.30;;;2.60;;
74630;SDS011;63138;55.082;38.804;2023-07-13T02:33:04;6.65;;;2.72;;
74630;SDS011;63138;55.082;38.804;2023-07-13T02:35:30;4.13;;;2.05;;
74630;SDS011;63138;55.082;38.804;2023-07-13T02:37:58;5.07;;;2.60;;
74630;SDS011;63138;55.082;38.804;2023-07-13T02:40:24;4.07;;;1.90;;
74630;SDS011;63138;55.082;38.804;2023-07-13T02:42:51;4.97;;;2.38;;
74630;SDS011;63138;55.082;38.804;2023-07-13T02:45:36;4.72;;;2.10;;
74630;SDS011;63138;55.082;38.804;2023-07-13T02:48:02;3.78;;;2.70;;
74630;SDS011;63138;55.082;38.804;2023-07-13T02:50:28;3.50;;;2.03;;
74630;SDS011;63138;55.082;38.804;2023-07-13T02:52:54;4.18;;;2.00;;
74630;SDS011;63138;55.082;38.804;2023-07-13T02:55:20;6.90;;;2.80;;
74630;SDS011;63138;55.082;38.804;2023-07-13T02:57:45;4.65;;;2.70;;
74630;SDS011;63138;55.082;38.804;2023-07-13T03:00:11;4.40;;;2.75;;
74630;SDS011;63138;55.082;38.804;2023-07-13T03:02:37;4.97;;;2.63;;
74630;SDS011;63138;55.082;38.804;2023-07-13T03:05:04;5.35;;;2.40;;
74630;SDS011;63138;55.082;38.804;2023-07-13T03:07:31;5.53;;;2.80;;
74630;SDS011;63138;55.082;38.804;2023-07-13T03:09:59;4.40;;;2.60;;
74630;SDS011;63138;55.082;38.804;2023-07-13T03:12:33;5.65;;;2.90;;
74630;SDS011;63138;55.082;38.804;2023-07-13T03:15:00;5.33;;;2.90;;
74630;SDS011;63138;55.082;38.804;2023-07-13T03:17:30;4.90;;;2.72;;
74630;SDS011;63138;55.082;38.804;2023-07-13T03:19:56;4.15;;;2.53;;
74630;SDS011;63138;55.082;38.804;2023-07-13T03:22:23;4.55;;;2.72;;
74630;SDS011;63138;55.082;38.804;2023-07-13T03:24:51;4.28;;;2.70;;
74630;SDS011;63138;55.082;38.804;2023-07-13T03:27:17;5.77;;;2.80;;
74630;SDS011;63138;55.082;38.804;2023-07-13T03:29:44;5.15;;;2.47;;
74630;SDS011;63138;55.082;38.804;2023-07-13T03:32:11;4.97;;;2.47;;
74630;SDS011;63138;55.082;38.804;2023-07-13T03:34:38;4.32;;;2.83;;
74630;SDS011;63138;55.082;38.804;2023-07-13T03:37:05;4.75;;;2.90;;
74630;SDS011;63138;55.082;38.804;2023-07-13T03:39:31;4.53;;;2.90;;
74630;SDS011;63138;55.082;38.804;2023-07-13T03:41:57;4.20;;;2.47;;
74630;SDS011;63138;55.082;38.804;2023-07-13T03:44:23;4.93;;;2.65;;
74630;SDS011;63138;55.082;38.804;2023-07-13T03:46:53;4.10;;;2.30;;
74630;SDS011;63138;55.082;38.804;2023-07-13T03:49:19;5.00;;;2.63;;
74630;SDS011;63138;55.082;38.804;2023-07-13T03:51:45;3.42;;;2.55;;
74630;SDS011;63138;55.082;38.804;2023-07-13T03:54:11;5.10;;;2.78;;
74630;SDS011;63138;55.082;38.804;2023-07-13T03:56:37;3.70;;;2.50;;
74630;SDS011;63138;55.082;38.804;2023-07-13T03:59:05;4.97;;;2.80;;
74630;SDS011;63138;55.082;38.804;2023-07-13T04:01:31;4.38;;;2.63;;
74630;SDS011;63138;55.082;38.804;2023-07-13T04:03:57;8.50;;;2.60;;
74630;SDS011;63138;55.082;38.804;2023-07-13T04:06:26;4.90;;;2.65;;
74630;SDS011;63138;55.082;38.804;2023-07-13T04:08:57;4.30;;;2.47;;
74630;SDS011;63138;55.082;38.804;2023-07-13T04:11:25;3.53;;;2.20;;
74630;SDS011;63138;55.082;38.804;2023-07-13T04:13:54;4.32;;;3.00;;
74630;SDS011;63138;55.082;38.804;2023-07-13T04:16:21;4.13;;;2.80;;
74630;SDS011;63138;55.082;38.804;2023-07-13T04:18:47;6.05;;;2.58;;
74630;SDS011;63138;55.082;38.804;2023-07-13T04:21:15;5.60;;;3.00;;
74630;SDS011;63138;55.082;38.804;2023-07-13T04:23:41;5.03;;;2.70;;
74630;SDS011;63138;55.082;38.804;2023-07-13T04:26:07;4.53;;;2.87;;
74630;SDS011;63138;55.082;38.804;2023-07-13T04:28:33;5.53;;;2.65;;
74630;SDS011;63138;55.082;38.804;2023-07-13T04:31:00;4.90;;;2.95;;
74630;SDS011;63138;55.082;38.804;2023-07-13T04:33:26;6.07;;;2.92;;
74630;SDS011;63138;55.082;38.804;2023-07-13T04:35:54;6.78;;;3.08;;
74630;SDS011;63138;55.082;38.804;2023-07-13T04:38:24;4.67;;;2.50;;
74630;SDS011;63138;55.082;38.804;2023-07-13T04:40:57;4.90;;;2.53;;
74630;SDS011;63138;55.082;38.804;2023-07-13T04:43:26;6.30;;;2.88;;
74630;SDS011;63138;55.082;38.804;2023-07-13T04:45:53;3.92;;;2.92;;
74630;SDS011;63138;55.082;38.804;2023-07-13T04:48:20;4.45;;;2.70;;
74630;SDS011;63138;55.082;38.804;2023-07-13T04:50:47;7.40;;;2.73;;
74630;SDS011;63138;55.082;38.804;2023-07-13T04:53:13;5.22;;;2.53;;
74630;SDS011;63138;55.082;38.804;2023-07-13T04:55:39;4.18;;;3.00;;
74630;SDS011;63138;55.082;38.804;2023-07-13T04:58:06;5.03;;;3.05;;
74630;SDS011;63138;55.082;38.804;2023-07-13T05:00:33;6.43;;;3.00;;
74630;SDS011;63138;55.082;38.804;2023-07-13T05:02:59;4.20;;;2.75;;
74630;SDS011;63138;55.082;38.804;2023-07-13T05:05:25;5.28;;;2.78;;
74630;SDS011;63138;55.082;38.804;2023-07-13T05:07:52;5.07;;;3.20;;
74630;SDS011;63138;55.082;38.804;2023-07-13T05:10:19;6.73;;;3.20;;
74630;SDS011;63138;55.082;38.804;2023-07-13T05:12:46;4.70;;;3.05;;
74630;SDS011;63138;55.082;38.804;2023-07-13T05:15:12;4.40;;;2.60;;
74630;SDS011;63138;55.082;38.804;2023-07-13T05:17:38;4.32;;;3.00;;
74630;SDS011;63138;55.082;38.804;2023-07-13T05:20:06;9.63;;;3.13;;
74630;SDS011;63138;55.082;38.804;2023-07-13T05:22:52;4.93;;;2.70;;
74630;SDS011;63138;55.082;38.804;2023-07-13T05:25:18;7.97;;;3.65;;
74630;SDS011;63138;55.082;38.804;2023-07-13T05:27:45;4.00;;;2.58;;
74630;SDS011;63138;55.082;38.804;2023-07-13T05:30:31;5.05;;;3.45;;
74630;SDS011;63138;55.082;38.804;2023-07-13T05:32:56;6.43;;;2.80;;
74630;SDS011;63138;55.082;38.804;2023-07-13T05:35:22;4.65;;;3.00;;
74630;SDS011;63138;55.082;38.804;2023-07-13T05:37:48;6.38;;;3.20;;
74630;SDS011;63138;55.082;38.804;2023-07-13T05:40:14;5.97;;;3.00;;
74630;SDS011;63138;55.082;38.804;2023-07-13T05:42:40;5.18;;;3.30;;
74630;SDS011;63138;55.082;38.804;2023-07-13T05:45:06;4.97;;;2.97;;
74630;SDS011;63138;55.082;38.804;2023-07-13T05:47:32;8.25;;;3.28;;
74630;SDS011;63138;55.082;38.804;2023-07-13T05:49:58;6.37;;;3.07;;
74630;SDS011;63138;55.082;38.804;2023-07-13T05:52:24;7.93;;;3.20;;
74630;SDS011;63138;55.082;38.804;2023-07-13T05:54:51;6.78;;;2.85;;
74630;SDS011;63138;55.082;38.804;2023-07-13T05:57:16;5.33;;;3.03;;
74630;SDS011;63138;55.082;38.804;2023-07-13T05:59:42;4.57;;;2.85;;
74630;SDS011;63138;55.082;38.804;2023-07-13T06:02:09;4.57;;;2.90;;
74630;SDS011;63138;55.082;38.804;2023-07-13T06:04:36;5.30;;;3.50;;
74630;SDS011;63138;55.082;38.804;2023-07-13T06:07:02;4.85;;;3.08;;
74630;SDS011;63138;55.082;38.804;2023-07-13T06:09:28;5.22;;;2.75;;
74630;SDS011;63138;55.082;38.804;2023-07-13T06:11:54;5.25;;;2.90;;
74630;SDS011;63138;55.082;38.804;2023-07-13T06:14:20;3.60;;;2.70;;
74630;SDS011;63138;55.082;38.804;2023-07-13T06:16:45;5.07;;;3.10;;
74630;SDS011;63138;55.082;38.804;2023-07-13T06:19:12;6.55;;;2.90;;
74630;SDS011;63138;55.082;38.804;2023-07-13T06:21:38;5.07;;;3.20;;
74630;SDS011;63138;55.082;38.804;2023-07-13T06:24:04;4.85;;;2.63;;
74630;SDS011;63138;55.082;38.804;2023-07-13T06:26:31;5.35;;;2.70;;
74630;SDS011;63138;55.082;38.804;2023-07-13T06:28:57;5.75;;;2.95;;
74630;SDS011;63138;55.082;38.804;2023-07-13T06:31:23;4.30;;;2.87;;
74630;SDS011;63138;55.082;38.804;2023-07-13T06:33:49;5.32;;;3.10;;
74630;SDS011;63138;55.082;38.804;2023-07-13T06:36:15;4.45;;;2.85;;
74630;SDS011;63138;55.082;38.804;2023-07-13T06:38:41;6.43;;;3.03;;
74630;SDS011;63138;55.082;38.804;2023-07-13T06:41:07;5.93;;;3.40;;
74630;SDS011;63138;55.082;38.804;2023-07-13T06:43:33;6.38;;;3.70;;
74630;SDS011;63138;55.082;38.804;2023-07-13T06:45:59;5.67;;;3.00;;
74630;SDS011;63138;55.082;38.804;2023-07-13T06:48:26;5.32;;;3.28;;
74630;SDS011;63138;55.082;38.804;2023-07-13T06:50:53;6.40;;;3.25;;
74630;SDS011;63138;55.082;38.804;2023-07-13T06:53:21;5.43;;;3.30;;
74630;SDS011;63138;55.082;38.804;2023-07-13T06:55:47;5.33;;;3.40;;
74630;SDS011;63138;55.082;38.804;2023-07-13T06:58:15;4.63;;;3.35;;
74630;SDS011;63138;55.082;38.804;2023-07-13T07:00:42;4.55;;;2.97;;
74630;SDS011;63138;55.082;38.804;2023-07-13T07:03:08;6.05;;;3.38;;
74630;SDS011;63138;55.082;38.804;2023-07-13T07:05:34;5.40;;;3.20;;
74630;SDS011;63138;55.082;38.804;2023-07-13T07:08:00;9.15;;;3.65;;
74630;SDS011;63138;55.082;38.804;2023-07-13T07:10:26;5.35;;;3.40;;
74630;SDS011;63138;55.082;38.804;2023-07-13T07:12:55;6.05;;;3.33;;
74630;SDS011;63138;55.082;38.804;2023-07-13T07:15:21;7.07;;;3.80;;
74630;SDS011;63138;55.082;38.804;2023-07-13T07:17:47;4.28;;;3.20;;
74630;SDS011;63138;55.082;38.804;2023-07-13T07:20:12;4.40;;;3.20;;
74630;SDS011;63138;55.082;38.804;2023-07-13T07:22:38;5.57;;;2.92;;
74630;SDS011;63138;55.082;38.804;2023-07-13T07:25:04;5.25;;;2.97;;
74630;SDS011;63138;55.082;38.804;2023-07-13T07:27:30;5.97;;;3.33;;
74630;SDS011;63138;55.082;38.804;2023-07-13T07:29:59;5.13;;;2.97;;
74630;SDS011;63138;55.082;38.804;2023-07-13T07:32:25;5.78;;;3.55;;
74630;SDS011;63138;55.082;38.804;2023-07-13T07:34:51;5.18;;;3.35;;
74630;SDS011;63138;55.082;38.804;2023-07-13T07:37:17;4.72;;;2.90;;
74630;SDS011;63138;55.082;38.804;2023-07-13T07:39:44;4.73;;;3.03;;
74630;SDS011;63138;55.082;38.804;2023-07-13T07:42:10;4.60;;;2.75;;
74630;SDS011;63138;55.082;38.804;2023-07-13T07:44:39;4.55;;;3.17;;
74630;SDS011;63138;55.082;38.804;2023-07-13T07:47:06;5.15;;;3.33;;
74630;SDS011;63138;55.082;38.804;2023-07-13T07:49:32;5.65;;;3.28;;
74630;SDS011;63138;55.082;38.804;2023-07-13T07:51:58;9.13;;;3.30;;
74630;SDS011;63138;55.082;38.804;2023-07-13T07:54:24;6.45;;;3.28;;
74630;SDS011;63138;55.082;38.804;2023-07-13T07:56:50;7.37;;;3.60;;
74630;SDS011;63138;55.082;38.804;2023-07-13T07:59:15;5.72;;;2.95;;
74630;SDS011;63138;55.082;38.804;2023-07-13T08:01:42;4.35;;;3.10;;
74630;SDS011;63138;55.082;38.804;2023-07-13T08:04:10;5.15;;;2.90;;
74630;SDS011;63138;55.082;38.804;2023-07-13T08:06:36;4.87;;;3.30;;
74630;SDS011;63138;55.082;38.804;2023-07-13T08:09:02;7.47;;;4.68;;
74630;SDS011;63138;55.082;38.804;2023-07-13T08:11:29;4.70;;;2.87;;
74630;SDS011;63138;55.082;38.804;2023-07-13T08:13:56;5.53;;;3.33;;
74630;SDS011;63138;55.082;38.804;2023-07-13T08:16:22;6.18;;;3.15;;
74630;SDS011;63138;55.082;38.804;2023-07-13T08:18:49;6.85;;;3.35;;
74630;SDS011;63138;55.082;38.804;2023-07-13T08:21:15;4.80;;;3.57;;
74630;SDS011;63138;55.082;38.804;2023-07-13T08:23:41;4.43;;;2.80;;
74630;SDS011;63138;55.082;38.804;2023-07-13T08:26:08;10.07;;;3.53;;
74630;SDS011;63138;55.082;38.804;2023-07-13T08:28:35;9.52;;;4.85;;
74630;SDS011;63138;55.082;38.804;2023-07-13T08:31:04;5.43;;;3.47;;
74630;SDS011;63138;55.082;38.804;2023-07-13T08:33:33;4.33;;;2.90;;
74630;SDS011;63138;55.082;38.804;2023-07-13T08:36:01;5.55;;;3.40;;
74630;SDS011;63138;55.082;38.804;2023-07-13T08:38:27;5.25;;;3.80;;
74630;SDS011;63138;55.082;38.804;2023-07-13T08:40:54;5.85;;;4.03;;
74630;SDS011;63138;55.082;38.804;2023-07-13T08:43:27;5.30;;;3.23;;
74630;SDS011;63138;55.082;38.804;2023-07-13T08:45:57;6.18;;;3.30;;
74630;SDS011;63138;55.082;38.804;2023-07-13T08:48:35;6.07;;;3.20;;
74630;SDS011;63138;55.082;38.804;2023-07-13T08:51:23;5.22;;;2.88;;
74630;SDS011;63138;55.082;38.804;2023-07-13T08:54:05;5.05;;;2.97;;
74630;SDS011;63138;55.082;38.804;2023-07-13T08:56:54;6.17;;;2.93;;
74630;SDS011;63138;55.082;38.804;2023-07-13T08:59:24;7.75;;;3.08;;
74630;SDS011;63138;55.082;38.804;2023-07-13T09:01:58;5.13;;;3.00;;
74630;SDS011;63138;55.082;38.804;2023-07-13T09:05:02;6.30;;;3.13;;
74630;SDS011;63138;55.082;38.804;2023-07-13T09:10:27;6.80;;;3.20;;
74630;SDS011;63138;55.082;38.804;2023-07-13T09:12:59;6.43;;;3.63;;
74630;SDS011;63138;55.082;38.804;2023-07-13T09:15:30;5.93;;;3.90;;
74630;SDS011;63138;55.082;38.804;2023-07-13T09:18:42;5.55;;;3.47;;
74630;SDS011;63138;55.082;38.804;2023-07-13T09:20:58;5.90;;;3.55;;
74630;SDS011;63138;55.082;38.804;2023-07-13T09:23:28;5.57;;;3.97;;
74630;SDS011;63138;55.082;38.804;2023-07-13T09:26:04;6.30;;;3.83;;
74630;SDS011;63138;55.082;38.804;2023-07-13T09:28:33;5.20;;;3.63;;
74630;SDS011;63138;55.082;38.804;2023-07-13T09:31:06;8.25;;;3.63;;
74630;SDS011;63138;55.082;38.804;2023-07-13T09:33:40;5.80;;;3.67;;
74630;SDS011;63138;55.082;38.804;2023-07-13T09:36:20;4.63;;;3.10;;
74630;SDS011;63138;55.082;38.804;2023-07-13T09:38:47;5.30;;;3.40;;
74630;SDS011;63138;55.082;38.804;2023-07-13T09:46:38;6.60;;;3.38;;
74630;SDS011;63138;55.082;38.804;2023-07-13T09:49:07;6.27;;;3.90;;
74630;SDS011;63138;55.082;38.804;2023-07-13T09:51:35;6.05;;;3.65;;
74630;SDS011;63138;55.082;38.804;2023-07-13T09:54:03;7.18;;;3.92;;
74630;SDS011;63138;55.082;38.804;2023-07-13T09:56:30;8.40;;;3.58;;
74630;SDS011;63138;55.082;38.804;2023-07-13T09:58:57;6.25;;;3.78;;
74630;SDS011;63138;55.082;38.804;2023-07-13T10:04:11;5.22;;;3.45;;
74630;SDS011;63138;55.082;38.804;2023-07-13T10:06:40;5.95;;;3.92;;
74630;SDS011;63138;55.082;38.804;2023-07-13T10:09:08;7.28;;;4.18;;
74630;SDS011;63138;55.082;38.804;2023-07-13T10:11:36;5.85;;;4.13;;
74630;SDS011;63138;55.082;38.804;2023-07-13T10:14:09;7.33;;;4.03;;
74630;SDS011;63138;55.082;38.804;2023-07-13T10:16:41;7.30;;;4.25;;
74630;SDS011;63138;55.082;38.804;2023-07-13T10:21:55;6.72;;;3.90;;
74630;SDS011;63138;55.082;38.804;2023-07-13T10:24:23;5.95;;;3.70;;
74630;SDS011;63138;55.082;38.804;2023-07-13T10:27:05;6.90;;;3.90;;
74630;SDS011;63138;55.082;38.804;2023-07-13T10:29:50;6.75;;;4.45;;
74630;SDS011;63138;55.082;38.804;2023-07-13T10:32:24;7.80;;;3.95;;
74630;SDS011;63138;55.082;38.804;2023-07-13T10:34:50;6.45;;;4.03;;
74630;SDS011;63138;55.082;38.804;2023-07-13T10:37:28;6.85;;;4.18;;
74630;SDS011;63138;55.082;38.804;2023-07-13T10:39:59;7.93;;;5.23;;
74630;SDS011;63138;55.082;38.804;2023-07-13T10:42:31;7.40;;;4.65;;
74630;SDS011;63138;55.082;38.804;2023-07-13T10:45:00;7.13;;;4.10;;
74630;SDS011;63138;55.082;38.804;2023-07-13T10:47:29;5.88;;;4.10;;
74630;SDS011;63138;55.082;38.804;2023-07-13T10:49:57;7.35;;;4.10;;
74630;SDS011;63138;55.082;38.804;2023-07-13T10:52:40;7.10;;;3.93;;
74630;SDS011;63138;55.082;38.804;2023-07-13T10:58:23;5.00;;;3.50;;
74630;SDS011;63138;55.082;38.804;2023-07-13T11:03:38;5.35;;;4.18;;
74630;SDS011;63138;55.082;38.804;2023-07-13T11:18:49;5.70;;;3.13;;
74630;SDS011;63138;55.082;38.804;2023-07-13T11:21:19;4.93;;;3.47;;
74630;SDS011;63138;55.082;38.804;2023-07-13T11:24:01;6.00;;;3.58;;
74630;SDS011;63138;55.082;38.804;2023-07-13T11:32:10;6.93;;;3.40;;
74630;SDS011;63138;55.082;38.804;2023-07-13T11:34:49;7.63;;;3.45;;
74630;SDS011;63138;55.082;38.804;2023-07-13T11:37:20;6.05;;;4.10;;
74630;SDS011;63138;55.082;38.804;2023-07-13T11:39:50;5.88;;;3.80;;
74630;SDS011;63138;55.082;38.804;2023-07-13T11:42:18;9.30;;;4.20;;
74630;SDS011;63138;55.082;38.804;2023-07-13T11:44:48;7.00;;;3.67;;
74630;SDS011;63138;55.082;38.804;2023-07-13T11:47:19;6.82;;;3.92;;
74630;SDS011;63138;55.082;38.804;2023-07-13T11:49:49;5.45;;;3.25;;
74630;SDS011;63138;55.082;38.804;2023-07-13T11:52:19;5.60;;;3.70;;
74630;SDS011;63138;55.082;38.804;2023-07-13T11:54:49;5.53;;;3.28;;
74630;SDS011;63138;55.082;38.804;2023-07-13T11:57:28;4.73;;;3.17;;
74630;SDS011;63138;55.082;38.804;2023-07-13T12:00:00;4.60;;;3.30;;
74630;SDS011;63138;55.082;38.804;2023-07-13T12:02:59;6.70;;;3.85;;
74630;SDS011;63138;55.082;38.804;2023-07-13T12:05:28;5.53;;;3.88;;
74630;SDS011;63138;55.082;38.804;2023-07-13T12:07:57;4.47;;;2.70;;
74630;SDS011;63138;55.082;38.804;2023-07-13T12:10:27;6.33;;;3.43;;
74630;SDS011;63138;55.082;38.804;2023-07-13T12:12:58;6.20;;;3.53;;
74630;SDS011;63138;55.082;38.804;2023-07-13T12:15:32;6.10;;;3.38;;
74630;SDS011;63138;55.082;38.804;2023-07-13T12:18:01;5.93;;;2.90;;
74630;SDS011;63138;55.082;38.804;2023-07-13T12:20:28;5.70;;;3.20;;
74630;SDS011;63138;55.082;38.804;2023-07-13T12:23:01;4.80;;;3.20;;
74630;SDS011;63138;55.082;38.804;2023-07-13T12:25:30;4.75;;;3.22;;
74630;SDS011;63138;55.082;38.804;2023-07-13T12:27:56;5.65;;;3.00;;
74630;SDS011;63138;55.082;38.804;2023-07-13T12:30:29;4.97;;;3.20;;
74630;SDS011;63138;55.082;38.804;2023-07-13T12:33:06;5.70;;;2.90;;
74630;SDS011;63138;55.082;38.804;2023-07-13T12:35:47;5.45;;;3.20;;
74630;SDS011;63138;55.082;38.804;2023-07-13T12:38:16;5.03;;;3.30;;
74630;SDS011;63138;55.082;38.804;2023-07-13T12:40:42;5.00;;;2.90;;
74630;SDS011;63138;55.082;38.804;2023-07-13T12:43:11;5.45;;;3.05;;
74630;SDS011;63138;55.082;38.804;2023-07-13T12:45:40;6.00;;;2.87;;
74630;SDS011;63138;55.082;38.804;2023-07-13T12:48:23;5.28;;;2.90;;
74630;SDS011;63138;55.082;38.804;2023-07-13T12:50:50;4.97;;;3.38;;
74630;SDS011;63138;55.082;38.804;2023-07-13T12:53:18;4.68;;;2.67;;
74630;SDS011;63138;55.082;38.804;2023-07-13T12:55:47;4.25;;;2.83;;
74630;SDS011;63138;55.082;38.804;2023-07-13T12:58:27;7.63;;;3.13;;
74630;SDS011;63138;55.082;38.804;2023-07-13T13:00:54;4.82;;;3.00;;
74630;SDS011;63138;55.082;38.804;2023-07-13T13:06:03;6.13;;;3.00;;
74630;SDS011;63138;55.082;38.804;2023-07-13T13:08:32;5.38;;;3.00;;
74630;SDS011;63138;55.082;38.804;2023-07-13T13:11:00;6.73;;;3.17;;
74630;SDS011;63138;55.082;38.804;2023-07-13T13:13:27;5.30;;;2.90;;
74630;SDS011;63138;55.082;38.804;2023-07-13T13:15:53;6.30;;;3.08;;
74630;SDS011;63138;55.082;38.804;2023-07-13T13:18:20;6.32;;;3.15;;
74630;SDS011;63138;55.082;38.804;2023-07-13T13:20:48;5.87;;;3.13;;
74630;SDS011;63138;55.082;38.804;2023-07-13T13:23:17;7.15;;;3.35;;
74630;SDS011;63138;55.082;38.804;2023-07-13T13:25:46;6.25;;;3.63;;
74630;SDS011;63138;55.082;38.804;2023-07-13T13:28:14;5.45;;;3.00;;
74630;SDS011;63138;55.082;38.804;2023-07-13T13:30:42;6.05;;;3.22;;
74630;SDS011;63138;55.082;38.804;2023-07-13T13:33:11;7.93;;;2.77;;
74630;SDS011;63138;55.082;38.804;2023-07-13T13:35:38;5.97;;;2.75;;
74630;SDS011;63138;55.082;38.804;2023-07-13T13:38:19;6.32;;;3.20;;
74630;SDS011;63138;55.082;38.804;2023-07-13T13:40:49;5.18;;;2.60;;
74630;SDS011;63138;55.082;38.804;2023-07-13T13:45:42;7.80;;;2.97;;
74630;SDS011;63138;55.082;38.804;2023-07-13T13:48:13;5.50;;;3.30;;
74630;SDS011;63138;55.082;38.804;2023-07-13T13:50:47;5.35;;;3.50;;
74630;SDS011;63138;55.082;38.804;2023-07-13T13:53:14;6.47;;;3.50;;
74630;SDS011;63138;55.082;38.804;2023-07-13T13:55:40;5.90;;;3.57;;
74630;SDS011;63138;55.082;38.804;2023-07-13T13:58:10;5.88;;;3.13;;
74630;SDS011;63138;55.082;38.804;2023-07-13T14:00:39;5.18;;;3.53;;
74630;SDS011;63138;55.082;38.804;2023-07-13T14:03:05;7.75;;;3.40;;
74630;SDS011;63138;55.082;38.804;2023-07-13T14:05:39;7.75;;;4.03;;
74630;SDS011;63138;55.082;38.804;2023-07-13T14:08:11;9.77;;;4.03;;
74630;SDS011;63138;55.082;38.804;2023-07-13T14:10:40;8.40;;;3.95;;
74630;SDS011;63138;55.082;38.804;2023-07-13T14:13:07;8.25;;;3.55;;
74630;SDS011;63138;55.082;38.804;2023-07-13T14:15:45;5.20;;;3.38;;
74630;SDS011;63138;55.082;38.804;2023-07-13T14:18:12;8.38;;;4.18;;
74630;SDS011;63138;55.082;38.804;2023-07-13T14:20:43;5.70;;;3.30;;
74630;SDS011;63138;55.082;38.804;2023-07-13T14:23:12;7.47;;;4.30;;
74630;SDS011;63138;55.082;38.804;2023-07-13T14:25:39;6.80;;;3.85;;
74630;SDS011;63138;55.082;38.804;2023-07-13T14:30:51;6.50;;;3.53;;
74630;SDS011;63138;55.082;38.804;2023-07-13T14:33:36;6.93;;;3.58;;
74630;SDS011;63138;55.082;38.804;2023-07-13T14:36:02;7.32;;;4.03;;
74630;SDS011;63138;55.082;38.804;2023-07-13T14:38:40;10.85;;;4.60;;
74630;SDS011;63138;55.082;38.804;2023-07-13T14:41:07;6.63;;;3.70;;
74630;SDS011;63138;55.082;38.804;2023-07-13T14:43:33;8.63;;;4.15;;
74630;SDS011;63138;55.082;38.804;2023-07-13T14:46:01;8.60;;;3.80;;
74630;SDS011;63138;55.082;38.804;2023-07-13T14:48:27;5.72;;;3.60;;
74630;SDS011;63138;55.082;38.804;2023-07-13T14:50:54;6.00;;;3.47;;
74630;SDS011;63138;55.082;38.804;2023-07-13T14:53:22;5.50;;;3.70;;
74630;SDS011;63138;55.082;38.804;2023-07-13T14:55:49;7.38;;;4.10;;
74630;SDS011;63138;55.082;38.804;2023-07-13T14:58:17;6.85;;;3.80;;
74630;SDS011;63138;55.082;38.804;2023-07-13T15:00:43;8.03;;;3.60;;
74630;SDS011;63138;55.082;38.804;2023-07-13T15:03:16;9.07;;;3.42;;
74630;SDS011;63138;55.082;38.804;2023-07-13T15:05:49;8.52;;;3.92;;
74630;SDS011;63138;55.082;38.804;2023-07-13T15:08:15;6.00;;;3.78;;
74630;SDS011;63138;55.082;38.804;2023-07-13T15:10:41;7.70;;;3.65;;
74630;SDS011;63138;55.082;38.804;2023-07-13T15:15:46;7.95;;;3.80;;
74630;SDS011;63138;55.082;38.804;2023-07-13T15:18:15;6.07;;;3.38;;
74630;SDS011;63138;55.082;38.804;2023-07-13T15:20:43;6.60;;;3.20;;
74630;SDS011;63138;55.082;38.804;2023-07-13T15:23:11;5.87;;;3.03;;
74630;SDS011;63138;55.082;38.804;2023-07-13T15:25:38;5.03;;;3.65;;
74630;SDS011;63138;55.082;38.804;2023-07-13T15:28:04;5.05;;;3.20;;
74630;SDS011;63138;55.082;38.804;2023-07-13T15:30:31;7.32;;;2.60;;
74630;SDS011;63138;55.082;38.804;2023-07-13T15:33:15;6.80;;;3.28;;